createdAt,value
2022-08-02T00:02:08.237Z,1.70
2022-08-02T00:05:15.988Z,1.60
2022-08-02T00:08:23.939Z,1.60
2022-08-02T00:11:31.851Z,1.50
2022-08-02T00:14:39.591Z,1.80
2022-08-02T00:17:48.473Z,1.70
2022-08-02T00:20:56.152Z,1.80
2022-08-02T00:24:28.899Z,1.80
2022-08-02T00:27:09.572Z,1.90
2022-08-02T00:30:18.919Z,1.90
2022-08-02T00:34:27.439Z,1.80
2022-08-02T00:36:31.737Z,1.60
2022-08-02T00:39:39.689Z,2.20
2022-08-02T00:42:48.077Z,1.70
2022-08-02T00:46:03.207Z,1.60
2022-08-02T00:49:00.348Z,1.70
2022-08-02T00:52:08.985Z,1.70
2022-08-02T00:55:17.751Z,1.80
2022-08-02T00:58:20.634Z,2.00
2022-08-02T01:01:28.419Z,2.40
2022-08-02T01:04:36.074Z,1.80
2022-08-02T01:07:44.365Z,1.80
2022-08-02T01:10:51.616Z,1.90
2022-08-02T01:14:00.618Z,1.70
2022-08-02T01:17:07.986Z,2.00
2022-08-02T01:20:16.366Z,1.50
2022-08-02T01:23:24.168Z,1.80
2022-08-02T01:26:32.052Z,1.90
2022-08-02T01:29:39.939Z,2.20
2022-08-02T01:32:48.171Z,1.80
2022-08-02T01:35:55.669Z,2.40
2022-08-02T01:39:03.935Z,2.40
2022-08-02T01:42:11.487Z,2.00
2022-08-02T01:45:19.863Z,1.70
2022-08-02T01:48:28.070Z,1.70
2022-08-02T01:51:35.477Z,2.30
2022-08-02T01:54:44.866Z,2.20
2022-08-02T01:57:52.246Z,2.30
2022-08-02T02:01:00.587Z,2.60
2022-08-02T02:04:08.957Z,2.50
2022-08-02T02:06:39.995Z,2.30
2022-08-02T02:09:00.211Z,2.40
2022-08-02T02:12:13.400Z,2.30
2022-08-02T02:15:10.643Z,2.10
2022-08-02T02:18:17.932Z,2.40
2022-08-02T02:21:25.904Z,2.70
2022-08-02T02:24:33.963Z,2.50
2022-08-02T02:27:41.765Z,2.50
2022-08-02T02:30:52.388Z,2.50
2022-08-02T02:33:59.738Z,2.20
2022-08-02T02:37:07.937Z,2.40
2022-08-02T02:40:16.175Z,2.60
2022-08-02T02:43:23.475Z,2.10
2022-08-02T02:46:31.450Z,2.80
2022-08-02T02:49:39.508Z,2.80
2022-08-02T02:52:46.688Z,2.40
2022-08-02T02:56:02.581Z,2.50
2022-08-02T02:58:58.901Z,2.80
2022-08-02T03:02:06.575Z,2.30
2022-08-02T03:05:14.712Z,2.50
2022-08-02T03:08:22.267Z,2.80
2022-08-02T03:11:30.055Z,2.30
2022-08-02T03:14:38.214Z,3.00
2022-08-02T03:17:45.970Z,2.60
2022-08-02T03:20:53.647Z,2.50
2022-08-02T03:24:01.099Z,2.50
2022-08-02T03:27:09.189Z,2.30
2022-08-02T03:30:17.657Z,2.50
2022-08-02T03:33:24.971Z,2.70
2022-08-02T03:36:32.888Z,2.40
2022-08-02T03:39:52.654Z,2.70
2022-08-02T03:42:46.650Z,3.00
2022-08-02T03:45:55.583Z,2.50
2022-08-02T03:49:03.301Z,2.80
2022-08-02T03:52:11.959Z,2.60
2022-08-02T03:55:20.222Z,2.60
2022-08-02T03:58:27.577Z,2.40
2022-08-02T04:01:35.117Z,3.00
2022-08-02T04:04:42.810Z,2.40
2022-08-02T04:08:32.497Z,2.20
2022-08-02T04:10:55.819Z,2.40
2022-08-02T04:14:03.730Z,2.30
2022-08-02T04:17:11.481Z,2.50
2022-08-02T04:20:19.042Z,2.20
2022-08-02T04:23:27.093Z,2.00
2022-08-02T04:26:34.682Z,1.80
2022-08-02T04:29:46.590Z,2.30
2022-08-02T04:32:44.055Z,2.00
2022-08-02T04:35:52.849Z,1.90
2022-08-02T04:38:52.316Z,1.90
2022-08-02T04:42:00.115Z,1.80
2022-08-02T04:45:07.229Z,1.90
2022-08-02T04:48:15.280Z,1.60
2022-08-02T04:51:23.209Z,1.80
2022-08-02T04:54:27.471Z,1.60
2022-08-02T04:57:35.464Z,2.00
2022-08-02T05:00:43.029Z,1.60
2022-08-02T05:03:50.642Z,2.10
2022-08-02T05:06:58.744Z,1.50
2022-08-02T05:10:06.345Z,2.40
2022-08-02T05:13:13.936Z,1.60
2022-08-02T05:16:21.967Z,1.50
2022-08-02T05:19:26.598Z,1.80
2022-08-02T05:22:34.248Z,1.80
2022-08-02T05:25:42.118Z,1.60
2022-08-02T05:28:50.002Z,1.40
2022-08-02T05:31:57.551Z,1.30
2022-08-02T05:35:05.240Z,1.30
2022-08-02T05:38:13.312Z,1.90
2022-08-02T05:41:20.924Z,1.10
2022-08-02T05:44:28.799Z,1.40
2022-08-02T05:47:36.924Z,1.40
2022-08-02T05:50:44.178Z,1.00
2022-08-02T05:53:52.202Z,1.30
2022-08-02T05:57:00.398Z,1.00
2022-08-02T06:00:07.700Z,1.30
2022-08-02T06:03:15.369Z,1.10
2022-08-02T06:06:22.901Z,1.30
2022-08-02T06:09:30.353Z,0.90
2022-08-02T06:12:38.554Z,1.10
2022-08-02T06:15:52.703Z,1.50
2022-08-02T06:18:49.561Z,1.40
2022-08-02T06:22:35.977Z,1.20
2022-08-02T06:25:01.979Z,1.30
2022-08-02T06:28:10.341Z,1.40
2022-08-02T06:31:19.129Z,0.90
2022-08-02T06:34:26.250Z,1.10
2022-08-02T06:37:34.360Z,1.00
2022-08-02T06:40:42.034Z,1.00
2022-08-02T06:43:49.741Z,1.20
2022-08-02T06:47:11.614Z,0.90
2022-08-02T06:50:02.722Z,1.10
2022-08-02T06:53:10.726Z,1.10
2022-08-02T06:56:18.388Z,0.90
2022-08-02T06:59:26.269Z,0.90
2022-08-02T07:02:33.590Z,1.20
2022-08-02T07:05:41.560Z,1.10
2022-08-02T07:09:11.187Z,1.30
2022-08-02T07:11:54.013Z,1.10
2022-08-02T07:15:01.842Z,1.10
2022-08-02T07:18:10.094Z,1.20
2022-08-02T07:21:10.417Z,1.40
2022-08-02T07:24:18.075Z,1.40
2022-08-02T07:27:26.186Z,1.10
2022-08-02T07:30:33.696Z,1.10
2022-08-02T07:33:46.798Z,1.20
2022-08-02T07:36:44.289Z,1.40
2022-08-02T07:39:53.501Z,1.20
2022-08-02T07:43:04.100Z,1.50
2022-08-02T07:46:12.693Z,1.20
2022-08-02T07:49:20.531Z,1.20
2022-08-02T07:52:28.245Z,1.20
2022-08-02T07:55:39.824Z,1.20
2022-08-02T07:58:37.585Z,1.20
2022-08-02T08:01:46.160Z,1.40
2022-08-02T08:04:54.180Z,1.20
2022-08-02T08:08:01.797Z,1.40
2022-08-02T08:11:09.072Z,1.20
2022-08-02T08:14:17.201Z,1.30
2022-08-02T08:17:24.806Z,1.20
2022-08-02T08:20:32.602Z,1.40
2022-08-02T08:23:41.115Z,1.70
2022-08-02T08:26:49.127Z,1.40
2022-08-02T08:29:59.355Z,1.60
2022-08-02T08:33:06.988Z,1.00
2022-08-02T08:36:15.100Z,1.10
2022-08-02T08:39:22.361Z,1.00
2022-08-02T08:42:30.408Z,1.10
2022-08-02T08:45:38.464Z,1.10
2022-08-02T08:48:45.750Z,1.10
2022-08-02T08:51:54.297Z,1.30
2022-08-02T08:55:02.147Z,1.20
2022-08-02T08:58:09.788Z,1.00
2022-08-02T09:01:18.223Z,1.40
2022-08-02T09:04:25.487Z,1.20
2022-08-02T09:07:33.751Z,1.10
2022-08-02T09:10:41.493Z,1.00
2022-08-02T09:13:49.254Z,1.50
2022-08-02T09:16:57.265Z,1.50
2022-08-02T09:20:05.066Z,1.80
2022-08-02T09:23:12.757Z,1.80
2022-08-02T09:26:22.080Z,1.60
2022-08-02T09:29:29.780Z,1.90
2022-08-02T09:32:37.961Z,2.10
2022-08-02T09:36:06.057Z,2.20
2022-08-02T09:38:50.954Z,1.30
2022-08-02T09:41:58.654Z,1.10
2022-08-02T09:45:06.825Z,1.10
2022-08-02T09:48:17.073Z,1.10
2022-08-02T09:51:24.838Z,1.00
2022-08-02T09:54:32.746Z,1.00
2022-08-02T09:57:40.450Z,1.50
2022-08-02T10:00:54.020Z,0.70
2022-08-02T10:03:50.473Z,0.70
2022-08-02T10:06:58.985Z,0.80
2022-08-02T10:10:06.276Z,0.90
2022-08-02T10:13:13.587Z,0.80
2022-08-02T10:16:18.065Z,0.70
2022-08-02T10:20:00.120Z,0.60
2022-08-02T10:22:30.598Z,0.90
2022-08-02T10:25:39.070Z,0.90
2022-08-02T10:28:46.321Z,0.80
2022-08-02T10:31:55.011Z,0.70
2022-08-02T10:35:18.596Z,1.00
2022-08-02T10:38:07.557Z,0.80
2022-08-02T10:41:15.517Z,1.00
2022-08-02T10:44:25.360Z,1.00
2022-08-02T10:47:32.649Z,0.90
2022-08-02T10:50:40.361Z,1.10
2022-08-02T10:53:47.720Z,0.80
2022-08-02T10:56:54.913Z,1.20
2022-08-02T11:00:02.663Z,1.20
2022-08-02T11:03:10.355Z,1.10
2022-08-02T11:06:25.336Z,1.30
2022-08-02T11:09:22.425Z,1.30
2022-08-02T11:12:30.376Z,1.10
2022-08-02T11:15:37.850Z,1.10
2022-08-02T11:18:45.346Z,1.20
2022-08-02T11:21:52.882Z,1.30
2022-08-02T11:25:00.625Z,1.30
2022-08-02T11:28:08.175Z,1.20
2022-08-02T11:31:16.915Z,0.90
2022-08-02T11:34:36.464Z,0.80
2022-08-02T11:37:29.495Z,0.80
2022-08-02T11:40:37.501Z,0.90
2022-08-02T11:43:45.079Z,0.90
2022-08-02T11:46:52.670Z,0.80
2022-08-02T11:50:00.693Z,0.70
2022-08-02T11:53:07.885Z,0.70
2022-08-02T11:56:21.822Z,0.80
2022-08-02T11:59:21.097Z,0.90
2022-08-02T12:02:28.889Z,0.80
2022-08-02T12:06:04.470Z,0.70
2022-08-02T12:08:42.273Z,1.20
2022-08-02T12:11:46.973Z,1.00
2022-08-02T12:14:55.073Z,0.90
2022-08-02T12:18:02.345Z,0.90
2022-08-02T12:21:10.368Z,0.60
2022-08-02T12:24:18.629Z,0.80
2022-08-02T12:27:25.849Z,0.70
2022-08-02T12:30:33.451Z,0.60
2022-08-02T12:33:41.103Z,0.70
2022-08-02T12:36:48.794Z,0.50
2022-08-02T12:39:56.303Z,0.60
2022-08-02T12:43:05.060Z,0.70
2022-08-02T12:46:12.978Z,1.30
2022-08-02T12:49:20.660Z,0.50
2022-08-02T12:52:28.357Z,0.80
2022-08-02T12:56:00.935Z,0.70
2022-08-02T12:58:41.223Z,0.60
2022-08-02T13:01:50.041Z,0.60
2022-08-02T13:04:57.922Z,1.00
2022-08-02T13:08:06.230Z,0.50
2022-08-02T13:11:14.417Z,0.60
2022-08-02T13:14:22.057Z,0.60
2022-08-02T13:17:31.091Z,0.80
2022-08-02T13:20:42.928Z,0.50
2022-08-02T13:23:54.079Z,0.60
2022-08-02T13:26:48.535Z,0.60
2022-08-02T13:29:56.689Z,0.50
2022-08-02T13:33:04.676Z,0.60
2022-08-02T13:36:12.642Z,0.50
2022-08-02T13:39:20.710Z,0.70
2022-08-02T13:42:29.410Z,0.50
2022-08-02T13:45:37.402Z,0.70
2022-08-02T13:48:45.353Z,0.50
2022-08-02T13:51:52.944Z,0.50
2022-08-02T13:55:01.116Z,0.50
2022-08-02T13:58:09.777Z,0.60
2022-08-02T14:01:17.403Z,0.60
2022-08-02T14:04:25.671Z,0.40
2022-08-02T14:07:34.082Z,0.80
2022-08-02T14:10:41.454Z,0.50
2022-08-02T14:13:49.346Z,0.50
2022-08-02T14:16:57.126Z,0.30
2022-08-02T14:20:04.827Z,0.40
2022-08-02T14:23:13.018Z,0.30
2022-08-02T14:26:27.557Z,0.50
2022-08-02T14:29:24.913Z,0.40
2022-08-02T14:32:32.997Z,0.60
2022-08-02T14:35:40.766Z,0.40
2022-08-02T14:38:48.803Z,0.50
2022-08-02T14:41:59.744Z,0.40
2022-08-02T14:44:58.910Z,0.40
2022-08-02T14:48:07.143Z,0.40
2022-08-02T14:51:15.183Z,0.40
2022-08-02T14:54:30.796Z,0.30
2022-08-02T14:57:27.677Z,0.50
2022-08-02T15:00:40.101Z,0.40
2022-08-02T15:03:43.182Z,0.40
2022-08-02T15:06:40.442Z,0.50
2022-08-02T15:09:48.254Z,0.50
2022-08-02T15:12:56.712Z,0.50
2022-08-02T15:16:04.344Z,0.50
2022-08-02T15:19:12.446Z,0.30
2022-08-02T15:22:20.755Z,0.50
2022-08-02T15:25:28.076Z,0.50
2022-08-02T15:28:36.304Z,0.50
2022-08-02T15:31:43.992Z,0.50
2022-08-02T15:34:51.492Z,0.50
2022-08-02T15:37:58.772Z,0.50
2022-08-02T15:41:06.070Z,0.50
2022-08-02T15:44:13.779Z,0.40
2022-08-02T15:47:21.770Z,0.50
2022-08-02T15:50:29.458Z,0.30
2022-08-02T15:53:37.080Z,0.80
2022-08-02T15:56:44.593Z,0.50
2022-08-02T15:59:52.241Z,0.50
2022-08-02T16:02:59.567Z,0.70
2022-08-02T16:06:07.146Z,0.50
2022-08-02T16:09:15.258Z,0.40
2022-08-02T16:12:22.899Z,0.50
2022-08-02T16:15:27.891Z,0.60
2022-08-02T16:18:36.082Z,0.50
2022-08-02T16:21:43.262Z,0.50
2022-08-02T16:24:51.236Z,0.60
2022-08-02T16:28:06.895Z,0.50
2022-08-02T16:31:10.884Z,0.70
2022-08-02T16:34:08.759Z,0.50
2022-08-02T16:37:16.455Z,0.50
2022-08-02T16:40:24.091Z,0.50
2022-08-02T16:43:32.210Z,0.60
2022-08-02T16:46:40.166Z,0.60
2022-08-02T16:50:04.721Z,0.60
2022-08-02T16:52:52.576Z,0.40
2022-08-02T16:56:00.467Z,0.50
2022-08-02T16:59:12.750Z,0.60
2022-08-02T17:02:15.127Z,0.60
2022-08-02T17:05:14.826Z,0.50
2022-08-02T17:08:22.914Z,0.70
2022-08-02T17:11:30.068Z,0.40
2022-08-02T17:14:54.680Z,0.60
2022-08-02T17:17:43.987Z,0.80
2022-08-02T17:20:54.190Z,0.70
2022-08-02T17:24:05.286Z,0.80
2022-08-02T17:27:04.931Z,0.50
2022-08-02T17:30:13.906Z,0.60
2022-08-02T17:33:21.716Z,0.70
2022-08-02T17:36:29.347Z,0.70
2022-08-02T17:39:44.271Z,0.80
2022-08-02T17:42:42.057Z,0.60
2022-08-02T17:46:00.420Z,0.70
2022-08-02T17:48:55.445Z,0.70
2022-08-02T17:52:48.320Z,0.60
2022-08-02T17:55:08.385Z,0.80
2022-08-02T17:58:15.745Z,0.50
2022-08-02T18:01:24.440Z,0.60
2022-08-02T18:04:32.469Z,0.70
2022-08-02T18:07:49.567Z,0.70
2022-08-02T18:10:45.109Z,0.90
2022-08-02T18:13:53.560Z,0.60
2022-08-02T18:17:00.646Z,0.70
2022-08-02T18:20:11.112Z,0.90
2022-08-02T18:23:18.395Z,0.80
2022-08-02T18:26:28.088Z,0.80
2022-08-02T18:29:38.427Z,0.80
2022-08-02T18:33:57.245Z,0.80
2022-08-02T18:35:52.551Z,0.70
2022-08-02T18:38:52.523Z,0.70
2022-08-02T18:42:02.036Z,0.70
2022-08-02T18:45:09.695Z,0.90
2022-08-02T18:48:17.418Z,0.70
2022-08-02T18:51:14.662Z,0.80
2022-08-02T18:54:26.677Z,0.90
2022-08-02T18:58:17.129Z,0.60
2022-08-02T19:00:32.241Z,0.60
2022-08-02T19:03:41.003Z,0.90
2022-08-02T19:06:45.174Z,0.70
2022-08-02T19:09:47.867Z,0.90
2022-08-02T19:12:55.050Z,0.80
2022-08-02T19:16:03.080Z,0.80
2022-08-02T19:19:10.759Z,0.90
2022-08-02T19:22:18.125Z,0.80
2022-08-02T19:25:20.393Z,0.80
2022-08-02T19:28:26.038Z,0.90
2022-08-02T19:31:59.738Z,1.10
2022-08-02T19:34:39.096Z,1.00
2022-08-02T19:37:47.180Z,1.10
2022-08-02T19:40:47.037Z,0.90
2022-08-02T19:44:26.683Z,0.80
2022-08-02T19:46:59.897Z,0.90
2022-08-02T19:50:07.557Z,1.00
2022-08-02T19:53:16.710Z,0.80
2022-08-02T19:56:25.180Z,1.00
2022-08-02T19:59:33.854Z,0.70
2022-08-02T20:02:41.662Z,0.90
2022-08-02T20:05:43.497Z,0.80
2022-08-02T20:08:53.334Z,0.90
2022-08-02T20:11:54.101Z,0.90
2022-08-02T20:14:52.280Z,0.90
2022-08-02T20:18:02.961Z,0.80
2022-08-02T20:21:14.000Z,1.40
2022-08-02T20:24:15.891Z,1.10
2022-08-02T20:27:28.470Z,1.10
2022-08-02T20:30:27.357Z,1.20
2022-08-02T20:33:35.097Z,1.10
2022-08-02T20:36:39.797Z,1.00
2022-08-02T20:39:47.918Z,1.00
2022-08-02T20:42:56.590Z,1.10
2022-08-02T20:46:04.724Z,1.10
2022-08-02T20:49:21.621Z,0.90
2022-08-02T20:52:23.639Z,1.20
2022-08-02T20:55:21.125Z,1.70
2022-08-02T20:58:31.101Z,1.10
2022-08-02T21:01:39.233Z,1.30
2022-08-02T21:04:46.938Z,1.30
2022-08-02T21:07:54.995Z,1.20
2022-08-02T21:11:09.511Z,1.20
2022-08-02T21:14:09.246Z,1.60
2022-08-02T21:17:18.512Z,1.40
2022-08-02T21:20:27.352Z,1.10
2022-08-02T21:23:25.741Z,1.30
2022-08-02T21:26:33.801Z,1.40
2022-08-02T21:29:41.419Z,1.20
2022-08-02T21:32:48.940Z,1.20
2022-08-02T21:35:56.672Z,1.20
2022-08-02T21:39:05.612Z,1.10
2022-08-02T21:42:04.984Z,0.90
2022-08-02T21:45:17.380Z,0.90
2022-08-02T21:48:16.593Z,1.00
2022-08-02T21:51:25.347Z,0.90
2022-08-02T21:54:25.948Z,1.10
2022-08-02T21:57:34.929Z,1.20
2022-08-02T22:00:42.087Z,1.00
2022-08-02T22:03:55.556Z,0.80
2022-08-02T22:06:52.770Z,1.20
2022-08-02T22:09:59.915Z,0.90
2022-08-02T22:13:07.534Z,1.10
2022-08-02T22:16:11.453Z,1.20
2022-08-02T22:19:19.165Z,1.10
2022-08-02T22:22:28.387Z,0.90
2022-08-02T22:25:37.465Z,1.20
2022-08-02T22:28:52.133Z,0.80
2022-08-02T22:31:50.103Z,1.20
2022-08-02T22:34:57.593Z,1.20
2022-08-02T22:38:15.256Z,1.10
2022-08-02T22:41:10.565Z,1.10
2022-08-02T22:44:20.153Z,1.00
2022-08-02T22:47:27.377Z,1.10
2022-08-02T22:50:35.085Z,1.00
2022-08-02T22:53:42.620Z,1.30
2022-08-02T22:56:49.758Z,1.00
2022-08-02T22:59:58.207Z,1.10
2022-08-02T23:03:06.850Z,0.90
2022-08-02T23:06:14.813Z,1.10
2022-08-02T23:09:22.704Z,0.80
2022-08-02T23:12:31.566Z,0.90
2022-08-02T23:15:39.135Z,1.20
2022-08-02T23:18:47.358Z,1.00
2022-08-02T23:22:02.404Z,1.00
2022-08-02T23:24:59.266Z,1.20
2022-08-02T23:28:07.032Z,0.90
2022-08-02T23:31:15.171Z,1.10
2022-08-02T23:34:25.404Z,1.10
2022-08-02T23:37:59.786Z,1.20
2022-08-02T23:40:40.668Z,1.10
2022-08-02T23:44:11.377Z,1.20
2022-08-02T23:46:53.773Z,1.30
2022-08-02T23:50:01.880Z,1.10
2022-08-02T23:53:08.971Z,1.10
2022-08-02T23:56:16.800Z,1.00
2022-08-02T23:59:24.693Z,1.20
